CPA022 YSSY-YMML
Flight info
| Callsign | CPA022 |
|---|---|
| Flight time | 1h 13m |
| Altitude | 36000 |
| Route | KEVIN7/16L KEVIN DCT WOL H65 LEECE Q29 ML |
| Aircraft | B742/H-SDFHIRWXY/L |
Departure
| Time | 2026-04-20 06:23 |
|---|---|
| Airport | Sydney Kingsford Smith International Airport (YSSY) |
Arrival
| Time | 2026-04-20 07:37 |
|---|---|
| Airport | Melbourne Airport (YMML) |
| Time | Latitude | Longitude | Altitude | Speed | Heading |
|---|---|---|---|---|---|
| 2026-04-20 05:23 | -33.93175 | 151.16801 | 27 ft | 0 kts | 259° |
| 2026-04-20 05:59 | -33.93174 | 151.16806 | 27 ft | 2 kts | 259° |
| 2026-04-20 06:00 | -33.93171 | 151.16823 | 27 ft | 2 kts | 259° |
| 2026-04-20 06:00 | -33.93168 | 151.16841 | 27 ft | 2 kts | 260° |
| 2026-04-20 06:00 | -33.93166 | 151.16858 | 27 ft | 2 kts | 259° |
| 2026-04-20 06:00 | -33.93163 | 151.16876 | 27 ft | 2 kts | 259° |
| 2026-04-20 06:01 | -33.93160 | 151.16895 | 27 ft | 2 kts | 260° |
| 2026-04-20 06:01 | -33.93159 | 151.16911 | 27 ft | 2 kts | 278° |
| 2026-04-20 06:01 | -33.93164 | 151.16928 | 27 ft | 2 kts | 304° |
| 2026-04-20 06:01 | -33.93175 | 151.16940 | 27 ft | 2 kts | 329° |
| 2026-04-20 06:02 | -33.93185 | 151.16945 | 27 ft | 1 kts | 347° |
| 2026-04-20 06:02 | -33.93187 | 151.16946 | 27 ft | 0 kts | 348° |
| 2026-04-20 06:08 | -33.93186 | 151.16946 | 27 ft | 0 kts | 347° |
| 2026-04-20 06:09 | -33.93156 | 151.16936 | 27 ft | 12 kts | 346° |
| 2026-04-20 06:09 | -33.93029 | 151.16908 | 27 ft | 16 kts | 11° |
| 2026-04-20 06:09 | -33.92984 | 151.16960 | 27 ft | 5 kts | 71° |
| 2026-04-20 06:09 | -33.92977 | 151.16988 | 26 ft | 2 kts | 76° |
| 2026-04-20 06:10 | -33.92976 | 151.16995 | 26 ft | 0 kts | 76° |
| 2026-04-20 06:14 | -33.92963 | 151.17055 | 25 ft | 17 kts | 76° |
| 2026-04-20 06:15 | -33.92979 | 151.17163 | 26 ft | 0 kts | 157° |
| 2026-04-20 06:23 | -33.93029 | 151.17181 | 27 ft | 32 kts | 166° |
| 2026-04-20 06:23 | -33.93492 | 151.17302 | 19 ft | 102 kts | 168° |
| 2026-04-20 06:23 | -33.94373 | 151.17537 | 139 ft | 146 kts | 169° |
| 2026-04-20 06:23 | -33.95414 | 151.17845 | 685 ft | 159 kts | 168° |
| 2026-04-20 06:24 | -33.96520 | 151.18141 | 1348 ft | 168 kts | 173° |
| 2026-04-20 06:24 | -33.97712 | 151.18109 | 2085 ft | 173 kts | 182° |
| 2026-04-20 06:24 | -33.98860 | 151.17996 | 2751 ft | 162 kts | 182° |
| 2026-04-20 06:24 | -33.99952 | 151.17882 | 3269 ft | 157 kts | 183° |
| 2026-04-20 06:25 | -34.01086 | 151.17764 | 3499 ft | 171 kts | 183° |
| 2026-04-20 06:25 | -34.02347 | 151.17639 | 3734 ft | 186 kts | 183° |
| 2026-04-20 06:25 | -34.03712 | 151.17513 | 3947 ft | 205 kts | 183° |
| 2026-04-20 06:25 | -34.05209 | 151.17381 | 4174 ft | 224 kts | 183° |
| 2026-04-20 06:26 | -34.06823 | 151.17247 | 4389 ft | 245 kts | 183° |
| 2026-04-20 06:26 | -34.08616 | 151.17108 | 4840 ft | 261 kts | 183° |
| 2026-04-20 06:26 | -34.10428 | 151.16981 | 5754 ft | 259 kts | 183° |
| 2026-04-20 06:26 | -34.12220 | 151.16870 | 6597 ft | 260 kts | 183° |
| 2026-04-20 06:27 | -34.14041 | 151.16763 | 7411 ft | 261 kts | 183° |
| 2026-04-20 06:27 | -34.15844 | 151.16649 | 8134 ft | 264 kts | 183° |
| 2026-04-20 06:27 | -34.17699 | 151.16528 | 8911 ft | 266 kts | 183° |
| 2026-04-20 06:27 | -34.19555 | 151.16403 | 9602 ft | 270 kts | 183° |
| 2026-04-20 06:28 | -34.21463 | 151.16273 | 10328 ft | 273 kts | 183° |
| 2026-04-20 06:28 | -34.23403 | 151.16142 | 10669 ft | 290 kts | 183° |
| 2026-04-20 06:28 | -34.25502 | 151.16003 | 10924 ft | 312 kts | 183° |
| 2026-04-20 06:28 | -34.27747 | 151.15765 | 11172 ft | 333 kts | 191° |
| 2026-04-20 06:29 | -34.30014 | 151.14789 | 11417 ft | 357 kts | 206° |
| 2026-04-20 06:29 | -34.32103 | 151.12956 | 11663 ft | 383 kts | 221° |
| 2026-04-20 06:29 | -34.33916 | 151.10516 | 12423 ft | 391 kts | 227° |
| 2026-04-20 06:29 | -34.35613 | 151.07996 | 13369 ft | 392 kts | 228° |
| 2026-04-20 06:30 | -34.37361 | 151.05411 | 14195 ft | 396 kts | 228° |
| 2026-04-20 06:30 | -34.39130 | 151.02846 | 14975 ft | 399 kts | 227° |
| 2026-04-20 06:30 | -34.40916 | 151.00293 | 15726 ft | 403 kts | 227° |
| 2026-04-20 06:30 | -34.42754 | 150.97685 | 16469 ft | 408 kts | 227° |
| 2026-04-20 06:31 | -34.44615 | 150.95056 | 17233 ft | 411 kts | 226° |
| 2026-04-20 06:31 | -34.46480 | 150.92421 | 17952 ft | 415 kts | 227° |
| 2026-04-20 06:31 | -34.48364 | 150.89758 | 18680 ft | 419 kts | 226° |
| 2026-04-20 06:31 | -34.50262 | 150.87074 | 19391 ft | 422 kts | 226° |
| 2026-04-20 06:32 | -34.52174 | 150.84367 | 20098 ft | 427 kts | 226° |
| 2026-04-20 06:32 | -34.54102 | 150.81584 | 20769 ft | 432 kts | 227° |
| 2026-04-20 06:32 | -34.55976 | 150.78713 | 21465 ft | 436 kts | 229° |
| 2026-04-20 06:32 | -34.57829 | 150.75764 | 22126 ft | 440 kts | 230° |
| 2026-04-20 06:33 | -34.59675 | 150.72766 | 22752 ft | 445 kts | 230° |
| 2026-04-20 06:33 | -34.61532 | 150.69717 | 23386 ft | 448 kts | 230° |
| 2026-04-20 06:33 | -34.63392 | 150.66646 | 23977 ft | 452 kts | 230° |
| 2026-04-20 06:33 | -34.65246 | 150.63573 | 24588 ft | 455 kts | 230° |
| 2026-04-20 06:34 | -34.67123 | 150.60455 | 25177 ft | 457 kts | 230° |
| 2026-04-20 06:34 | -34.68997 | 150.57340 | 25736 ft | 459 kts | 230° |
| 2026-04-20 06:34 | -34.72819 | 150.50978 | 26775 ft | 465 kts | 230° |
| 2026-04-20 06:35 | -34.74734 | 150.47786 | 27289 ft | 466 kts | 229° |
| 2026-04-20 06:35 | -34.76649 | 150.44592 | 27717 ft | 470 kts | 229° |
| 2026-04-20 06:35 | -34.78583 | 150.41362 | 28112 ft | 473 kts | 229° |
| 2026-04-20 06:35 | -34.80487 | 150.38182 | 28530 ft | 476 kts | 229° |
| 2026-04-20 06:36 | -34.82465 | 150.34872 | 28952 ft | 478 kts | 230° |
| 2026-04-20 06:36 | -34.84416 | 150.31607 | 29354 ft | 480 kts | 229° |
| 2026-04-20 06:36 | -34.86399 | 150.28285 | 29729 ft | 482 kts | 230° |
| 2026-04-20 06:36 | -34.88379 | 150.24963 | 30112 ft | 484 kts | 229° |
| 2026-04-20 06:37 | -34.90334 | 150.21683 | 30471 ft | 486 kts | 229° |
| 2026-04-20 06:37 | -34.92301 | 150.18373 | 31242 ft | 479 kts | 229° |
| 2026-04-20 06:37 | -34.94249 | 150.15086 | 32158 ft | 469 kts | 229° |
| 2026-04-20 06:37 | -34.96110 | 150.11945 | 33036 ft | 459 kts | 229° |
| 2026-04-20 06:38 | -34.97971 | 150.08806 | 33610 ft | 456 kts | 229° |
| 2026-04-20 06:38 | -34.99861 | 150.05627 | 33890 ft | 459 kts | 228° |
| 2026-04-20 06:38 | -35.01736 | 150.02469 | 34239 ft | 461 kts | 228° |
| 2026-04-20 06:38 | -35.03618 | 149.99292 | 34759 ft | 458 kts | 228° |
| 2026-04-20 06:39 | -35.05469 | 149.96159 | 35296 ft | 456 kts | 228° |
| 2026-04-20 06:39 | -35.07323 | 149.93021 | 35723 ft | 455 kts | 228° |
| 2026-04-20 06:39 | -35.09178 | 149.89880 | 36116 ft | 454 kts | 228° |
| 2026-04-20 06:39 | -35.11010 | 149.86777 | 36269 ft | 459 kts | 228° |
| 2026-04-20 06:40 | -35.12893 | 149.83589 | 36290 ft | 466 kts | 228° |
| 2026-04-20 06:40 | -35.16648 | 149.77202 | 36288 ft | 455 kts | 228° |
| 2026-04-20 06:41 | -35.20284 | 149.70995 | 36288 ft | 445 kts | 228° |
| 2026-04-20 06:41 | -35.23942 | 149.64771 | 36291 ft | 453 kts | 228° |
| 2026-04-20 06:42 | -35.27630 | 149.58475 | 36286 ft | 455 kts | 228° |
| 2026-04-20 06:42 | -35.31303 | 149.52182 | 36287 ft | 451 kts | 228° |
| 2026-04-20 06:43 | -35.34967 | 149.45897 | 36290 ft | 452 kts | 228° |
| 2026-04-20 06:43 | -35.38613 | 149.39635 | 36287 ft | 451 kts | 228° |
| 2026-04-20 06:44 | -35.42273 | 149.33334 | 36290 ft | 451 kts | 229° |
| 2026-04-20 06:44 | -35.45923 | 149.27045 | 36287 ft | 452 kts | 229° |
| 2026-04-20 06:45 | -35.49562 | 149.20756 | 36289 ft | 451 kts | 229° |
| 2026-04-20 06:45 | -35.53173 | 149.14506 | 36291 ft | 450 kts | 228° |
| 2026-04-20 06:46 | -35.56801 | 149.08218 | 36297 ft | 450 kts | 229° |
| 2026-04-20 06:46 | -35.60441 | 149.01897 | 36307 ft | 449 kts | 229° |
| 2026-04-20 06:47 | -35.64059 | 148.95601 | 36309 ft | 449 kts | 229° |
| 2026-04-20 06:47 | -35.67665 | 148.89319 | 36313 ft | 451 kts | 229° |
| 2026-04-20 06:48 | -35.71271 | 148.83022 | 36312 ft | 450 kts | 229° |
| 2026-04-20 06:48 | -35.74867 | 148.76733 | 36310 ft | 452 kts | 229° |
| 2026-04-20 06:49 | -35.78463 | 148.70430 | 36306 ft | 451 kts | 229° |
| 2026-04-20 06:49 | -35.82081 | 148.64076 | 36308 ft | 450 kts | 229° |
| 2026-04-20 06:50 | -35.85669 | 148.57765 | 36304 ft | 450 kts | 229° |
| 2026-04-20 06:50 | -35.89278 | 148.51393 | 36302 ft | 451 kts | 229° |
| 2026-04-20 06:51 | -35.92858 | 148.45048 | 36302 ft | 451 kts | 229° |
| 2026-04-20 06:51 | -35.96462 | 148.38652 | 36297 ft | 452 kts | 229° |
| 2026-04-20 06:52 | -36.00037 | 148.32294 | 36300 ft | 451 kts | 230° |
| 2026-04-20 06:52 | -36.03645 | 148.25862 | 36302 ft | 451 kts | 230° |
| 2026-04-20 06:53 | -36.07221 | 148.19476 | 36296 ft | 452 kts | 230° |
| 2026-04-20 06:53 | -36.10799 | 148.13080 | 36289 ft | 451 kts | 230° |
| 2026-04-20 06:54 | -36.14365 | 148.06708 | 36267 ft | 452 kts | 230° |
| 2026-04-20 06:54 | -36.17941 | 148.00314 | 36257 ft | 452 kts | 230° |
| 2026-04-20 06:55 | -36.21520 | 147.93904 | 36268 ft | 451 kts | 230° |
| 2026-04-20 06:55 | -36.25118 | 147.87450 | 36266 ft | 452 kts | 230° |
| 2026-04-20 06:56 | -36.28686 | 147.81035 | 36270 ft | 452 kts | 230° |
| 2026-04-20 06:56 | -36.32266 | 147.74582 | 36278 ft | 450 kts | 230° |
| 2026-04-20 06:57 | -36.35799 | 147.68196 | 36283 ft | 450 kts | 231° |
| 2026-04-20 06:57 | -36.39337 | 147.61787 | 36290 ft | 452 kts | 231° |
| 2026-04-20 06:58 | -36.42878 | 147.55357 | 36292 ft | 450 kts | 231° |
| 2026-04-20 06:58 | -36.46408 | 147.48935 | 36285 ft | 451 kts | 231° |
| 2026-04-20 06:59 | -36.49943 | 147.42494 | 36283 ft | 451 kts | 231° |
| 2026-04-20 06:59 | -36.53511 | 147.35977 | 36285 ft | 450 kts | 231° |
| 2026-04-20 07:00 | -36.57021 | 147.29556 | 36294 ft | 452 kts | 231° |
| 2026-04-20 07:00 | -36.60565 | 147.23061 | 36303 ft | 452 kts | 232° |
| 2026-04-20 07:01 | -36.64102 | 147.16565 | 36308 ft | 451 kts | 231° |
| 2026-04-20 07:01 | -36.67622 | 147.10091 | 35717 ft | 458 kts | 232° |
| 2026-04-20 07:01 | -36.69412 | 147.06792 | 35131 ft | 456 kts | 232° |
| 2026-04-20 07:02 | -36.71186 | 147.03517 | 34549 ft | 459 kts | 232° |
| 2026-04-20 07:02 | -36.72992 | 147.00185 | 33968 ft | 461 kts | 232° |
| 2026-04-20 07:02 | -36.74768 | 146.96902 | 33432 ft | 464 kts | 232° |
| 2026-04-20 07:02 | -36.76610 | 146.93498 | 32873 ft | 472 kts | 232° |
| 2026-04-20 07:03 | -36.78436 | 146.90120 | 32362 ft | 475 kts | 232° |
| 2026-04-20 07:03 | -36.80288 | 146.86684 | 31874 ft | 474 kts | 232° |
| 2026-04-20 07:03 | -36.82106 | 146.83305 | 31394 ft | 474 kts | 232° |
| 2026-04-20 07:03 | -36.83957 | 146.79864 | 30904 ft | 472 kts | 232° |
| 2026-04-20 07:04 | -36.85758 | 146.76514 | 30427 ft | 469 kts | 232° |
| 2026-04-20 07:04 | -36.87584 | 146.73112 | 29942 ft | 465 kts | 232° |
| 2026-04-20 07:04 | -36.89367 | 146.69788 | 29470 ft | 463 kts | 232° |
| 2026-04-20 07:04 | -36.91174 | 146.66420 | 28997 ft | 469 kts | 232° |
| 2026-04-20 07:05 | -36.92982 | 146.63049 | 28529 ft | 473 kts | 232° |
| 2026-04-20 07:05 | -36.94804 | 146.59645 | 28058 ft | 470 kts | 232° |
| 2026-04-20 07:05 | -36.96628 | 146.56229 | 27582 ft | 464 kts | 233° |
| 2026-04-20 07:05 | -36.98375 | 146.52954 | 27122 ft | 462 kts | 233° |
| 2026-04-20 07:06 | -37.00183 | 146.49564 | 26644 ft | 461 kts | 233° |
| 2026-04-20 07:06 | -37.01941 | 146.46266 | 26176 ft | 458 kts | 233° |
| 2026-04-20 07:06 | -37.03707 | 146.42949 | 25718 ft | 456 kts | 233° |
| 2026-04-20 07:06 | -37.05468 | 146.39636 | 25283 ft | 453 kts | 233° |
| 2026-04-20 07:07 | -37.07212 | 146.36354 | 24852 ft | 453 kts | 233° |
| 2026-04-20 07:07 | -37.08961 | 146.33060 | 24412 ft | 451 kts | 233° |
| 2026-04-20 07:07 | -37.10680 | 146.29819 | 23979 ft | 447 kts | 233° |
| 2026-04-20 07:07 | -37.12392 | 146.26587 | 23545 ft | 445 kts | 233° |
| 2026-04-20 07:08 | -37.14103 | 146.23355 | 23110 ft | 444 kts | 233° |
| 2026-04-20 07:08 | -37.15811 | 146.20128 | 22688 ft | 441 kts | 234° |
| 2026-04-20 07:08 | -37.17495 | 146.16940 | 22326 ft | 435 kts | 234° |
| 2026-04-20 07:08 | -37.19158 | 146.13788 | 22086 ft | 434 kts | 234° |
| 2026-04-20 07:09 | -37.20841 | 146.10600 | 21666 ft | 438 kts | 234° |
| 2026-04-20 07:09 | -37.22515 | 146.07422 | 21205 ft | 432 kts | 234° |
| 2026-04-20 07:09 | -37.24167 | 146.04282 | 20740 ft | 427 kts | 234° |
| 2026-04-20 07:09 | -37.25800 | 146.01178 | 20277 ft | 425 kts | 234° |
| 2026-04-20 07:10 | -37.27420 | 145.98093 | 19824 ft | 422 kts | 234° |
| 2026-04-20 07:10 | -37.29017 | 145.95053 | 19365 ft | 419 kts | 234° |
| 2026-04-20 07:10 | -37.30638 | 145.91966 | 18916 ft | 417 kts | 234° |
| 2026-04-20 07:10 | -37.32222 | 145.88953 | 18458 ft | 414 kts | 234° |
| 2026-04-20 07:11 | -37.33799 | 145.85951 | 18006 ft | 412 kts | 235° |
| 2026-04-20 07:11 | -37.35386 | 145.82930 | 17552 ft | 409 kts | 235° |
| 2026-04-20 07:11 | -37.36949 | 145.79950 | 17094 ft | 406 kts | 235° |
| 2026-04-20 07:11 | -37.38483 | 145.77023 | 16650 ft | 404 kts | 235° |
| 2026-04-20 07:12 | -37.40007 | 145.74116 | 16184 ft | 398 kts | 235° |
| 2026-04-20 07:12 | -37.41512 | 145.71240 | 15707 ft | 390 kts | 235° |
| 2026-04-20 07:12 | -37.42958 | 145.68411 | 15229 ft | 383 kts | 238° |
| 2026-04-20 07:12 | -37.44004 | 145.65358 | 14754 ft | 378 kts | 253° |
| 2026-04-20 07:13 | -37.44448 | 145.62087 | 14277 ft | 374 kts | 263° |
| 2026-04-20 07:13 | -37.44574 | 145.58844 | 13805 ft | 369 kts | 267° |
| 2026-04-20 07:13 | -37.44576 | 145.55659 | 13337 ft | 364 kts | 269° |
| 2026-04-20 07:13 | -37.44540 | 145.52469 | 12854 ft | 359 kts | 269° |
| 2026-04-20 07:14 | -37.44497 | 145.49362 | 12384 ft | 354 kts | 269° |
| 2026-04-20 07:14 | -37.44455 | 145.46274 | 11906 ft | 350 kts | 269° |
| 2026-04-20 07:14 | -37.44415 | 145.43237 | 11432 ft | 346 kts | 269° |
| 2026-04-20 07:14 | -37.44376 | 145.40204 | 10955 ft | 343 kts | 269° |
| 2026-04-20 07:15 | -37.44339 | 145.37283 | 10447 ft | 327 kts | 270° |
| 2026-04-20 07:15 | -37.44302 | 145.34473 | 9960 ft | 312 kts | 270° |
| 2026-04-20 07:15 | -37.44268 | 145.31802 | 9508 ft | 298 kts | 270° |
| 2026-04-20 07:15 | -37.44234 | 145.29260 | 9092 ft | 287 kts | 270° |
| 2026-04-20 07:16 | -37.44199 | 145.26718 | 8678 ft | 287 kts | 271° |
| 2026-04-20 07:16 | -37.44164 | 145.24239 | 8260 ft | 287 kts | 271° |
| 2026-04-20 07:16 | -37.44128 | 145.21707 | 7841 ft | 287 kts | 271° |
| 2026-04-20 07:16 | -37.44091 | 145.19200 | 7422 ft | 287 kts | 271° |
| 2026-04-20 07:17 | -37.44054 | 145.16685 | 7049 ft | 286 kts | 271° |
| 2026-04-20 07:17 | -37.44017 | 145.14183 | 6660 ft | 285 kts | 271° |
| 2026-04-20 07:17 | -37.43980 | 145.11703 | 6280 ft | 284 kts | 271° |
| 2026-04-20 07:17 | -37.43941 | 145.09222 | 5898 ft | 283 kts | 271° |
| 2026-04-20 07:18 | -37.43903 | 145.06769 | 5534 ft | 281 kts | 271° |
| 2026-04-20 07:18 | -37.43863 | 145.04288 | 5173 ft | 279 kts | 271° |
| 2026-04-20 07:18 | -37.43824 | 145.01869 | 4995 ft | 270 kts | 271° |
| 2026-04-20 07:18 | -37.43787 | 144.99562 | 4806 ft | 263 kts | 271° |
| 2026-04-20 07:19 | -37.43790 | 144.97287 | 4446 ft | 253 kts | 267° |
| 2026-04-20 07:19 | -37.43935 | 144.95174 | 4135 ft | 239 kts | 263° |
| 2026-04-20 07:19 | -37.44167 | 144.93088 | 3795 ft | 237 kts | 262° |
| 2026-04-20 07:19 | -37.44432 | 144.91046 | 3425 ft | 237 kts | 261° |
| 2026-04-20 07:20 | -37.44708 | 144.89023 | 3108 ft | 234 kts | 260° |
| 2026-04-20 07:20 | -37.44981 | 144.87068 | 2970 ft | 217 kts | 260° |
| 2026-04-20 07:20 | -37.45235 | 144.85259 | 2958 ft | 198 kts | 260° |
| 2026-04-20 07:20 | -37.45530 | 144.83601 | 2947 ft | 197 kts | 249° |
| 2026-04-20 07:21 | -37.46385 | 144.82268 | 2952 ft | 199 kts | 208° |
| 2026-04-20 07:21 | -37.47722 | 144.81984 | 2953 ft | 197 kts | 171° |
| 2026-04-20 07:21 | -37.49085 | 144.82155 | 2954 ft | 197 kts | 183° |
| 2026-04-20 07:21 | -37.50384 | 144.81679 | 2957 ft | 196 kts | 209° |
| 2026-04-20 07:22 | -37.51677 | 144.81143 | 2947 ft | 195 kts | 179° |
| 2026-04-20 07:22 | -37.53052 | 144.81233 | 2816 ft | 196 kts | 173° |
| 2026-04-20 07:22 | -37.54385 | 144.81456 | 2647 ft | 184 kts | 172° |
| 2026-04-20 07:22 | -37.55584 | 144.81673 | 2448 ft | 168 kts | 171° |
| 2026-04-20 07:23 | -37.56717 | 144.81882 | 2131 ft | 159 kts | 171° |
| 2026-04-20 07:23 | -37.57769 | 144.82079 | 1894 ft | 148 kts | 171° |
| 2026-04-20 07:23 | -37.58746 | 144.82262 | 1683 ft | 138 kts | 171° |
| 2026-04-20 07:23 | -37.59703 | 144.82440 | 1534 ft | 135 kts | 171° |
| 2026-04-20 07:24 | -37.60636 | 144.82616 | 1376 ft | 135 kts | 171° |
| 2026-04-20 07:24 | -37.61562 | 144.82790 | 1206 ft | 134 kts | 171° |
| 2026-04-20 07:24 | -37.62477 | 144.82960 | 1035 ft | 134 kts | 171° |
| 2026-04-20 07:24 | -37.63457 | 144.83150 | 1083 ft | 158 kts | 170° |
| 2026-04-20 07:25 | -37.64492 | 144.83896 | 1590 ft | 194 kts | 134° |
| 2026-04-20 07:25 | -37.65267 | 144.85455 | 2188 ft | 233 kts | 112° |
| 2026-04-20 07:25 | -37.65433 | 144.87697 | 2507 ft | 283 kts | 84° |
| 2026-04-20 07:25 | -37.64735 | 144.90022 | 2587 ft | 281 kts | 56° |
| 2026-04-20 07:26 | -37.63280 | 144.91576 | 2767 ft | 272 kts | 27° |
| 2026-04-20 07:26 | -37.61623 | 144.92658 | 2954 ft | 262 kts | 30° |
| 2026-04-20 07:26 | -37.60090 | 144.93825 | 3142 ft | 257 kts | 32° |
| 2026-04-20 07:26 | -37.58570 | 144.95021 | 3084 ft | 259 kts | 32° |
| 2026-04-20 07:27 | -37.57065 | 144.96204 | 3018 ft | 248 kts | 32° |
| 2026-04-20 07:27 | -37.55589 | 144.97363 | 2971 ft | 247 kts | 32° |
| 2026-04-20 07:27 | -37.54127 | 144.98514 | 2957 ft | 249 kts | 32° |
| 2026-04-20 07:27 | -37.52651 | 144.99675 | 2958 ft | 250 kts | 32° |
| 2026-04-20 07:28 | -37.51157 | 145.00853 | 2965 ft | 252 kts | 32° |
| 2026-04-20 07:28 | -37.49678 | 145.02020 | 2967 ft | 255 kts | 32° |
| 2026-04-20 07:28 | -37.48078 | 145.03079 | 2959 ft | 259 kts | 14° |
| 2026-04-20 07:28 | -37.46287 | 145.03102 | 2967 ft | 261 kts | 343° |
| 2026-04-20 07:29 | -37.44745 | 145.01926 | 2965 ft | 260 kts | 311° |
| 2026-04-20 07:29 | -37.43982 | 144.99991 | 2950 ft | 235 kts | 276° |
| 2026-04-20 07:29 | -37.44153 | 144.98055 | 2965 ft | 215 kts | 253° |
| 2026-04-20 07:29 | -37.44568 | 144.96341 | 2968 ft | 199 kts | 259° |
| 2026-04-20 07:30 | -37.44628 | 144.94606 | 2966 ft | 196 kts | 272° |
| 2026-04-20 07:30 | -37.44690 | 144.92909 | 2967 ft | 195 kts | 264° |
| 2026-04-20 07:30 | -37.44837 | 144.91206 | 2967 ft | 195 kts | 264° |
| 2026-04-20 07:30 | -37.44991 | 144.89488 | 2968 ft | 194 kts | 264° |
| 2026-04-20 07:31 | -37.45144 | 144.87811 | 2968 ft | 194 kts | 264° |
| 2026-04-20 07:31 | -37.45298 | 144.86127 | 2969 ft | 193 kts | 264° |
| 2026-04-20 07:31 | -37.45463 | 144.84459 | 2967 ft | 192 kts | 259° |
| 2026-04-20 07:31 | -37.46001 | 144.82916 | 2973 ft | 194 kts | 231° |
| 2026-04-20 07:32 | -37.46977 | 144.81717 | 2969 ft | 196 kts | 222° |
| 2026-04-20 07:32 | -37.48002 | 144.80580 | 2968 ft | 195 kts | 221° |
| 2026-04-20 07:32 | -37.49193 | 144.79828 | 2969 ft | 196 kts | 183° |
| 2026-04-20 07:32 | -37.50487 | 144.80273 | 2973 ft | 195 kts | 143° |
| 2026-04-20 07:33 | -37.51685 | 144.81030 | 2972 ft | 197 kts | 174° |
| 2026-04-20 07:33 | -37.53066 | 144.81171 | 2821 ft | 198 kts | 171° |
| 2026-04-20 07:33 | -37.54423 | 144.81439 | 2572 ft | 196 kts | 171° |
| 2026-04-20 07:33 | -37.55756 | 144.81700 | 2370 ft | 186 kts | 171° |
| 2026-04-20 07:34 | -37.56970 | 144.81932 | 2205 ft | 168 kts | 171° |
| 2026-04-20 07:34 | -37.58118 | 144.82147 | 1877 ft | 160 kts | 171° |
| 2026-04-20 07:34 | -37.59176 | 144.82346 | 1638 ft | 148 kts | 171° |
| 2026-04-20 07:35 | -37.61102 | 144.82706 | 1262 ft | 134 kts | 171° |
| 2026-04-20 07:35 | -37.62037 | 144.82875 | 1106 ft | 133 kts | 173° |
| 2026-04-20 07:35 | -37.62951 | 144.83037 | 938 ft | 132 kts | 169° |
| 2026-04-20 07:35 | -37.63862 | 144.83231 | 799 ft | 132 kts | 171° |
| 2026-04-20 07:36 | -37.64773 | 144.83392 | 601 ft | 130 kts | 171° |
| 2026-04-20 07:36 | -37.65670 | 144.83559 | 443 ft | 130 kts | 171° |
| 2026-04-20 07:36 | -37.66529 | 144.83717 | 408 ft | 117 kts | 172° |
| 2026-04-20 07:36 | -37.67196 | 144.83844 | 382 ft | 75 kts | 170° |
| 2026-04-20 07:37 | -37.67572 | 144.83917 | 372 ft | 41 kts | 171° |
| 2026-04-20 07:37 | -37.67777 | 144.83954 | 364 ft | 22 kts | 172° |
| 2026-04-20 07:37 | -37.67859 | 144.84000 | 363 ft | 11 kts | 123° |
| 2026-04-20 07:37 | -37.67875 | 144.84094 | 363 ft | 11 kts | 87° |
| 2026-04-20 07:38 | -37.67868 | 144.84152 | 365 ft | 0 kts | 81° |
| 2026-04-20 07:38 | -37.67867 | 144.84168 | 365 ft | 1 kts | 82° |
| 2026-04-20 07:39 | -37.67854 | 144.84270 | 368 ft | 19 kts | 81° |
| 2026-04-20 07:39 | -37.67831 | 144.84438 | 370 ft | 19 kts | 79° |
| 2026-04-20 07:39 | -37.67820 | 144.84538 | 371 ft | 6 kts | 85° |
| 2026-04-20 07:39 | -37.67812 | 144.84578 | 372 ft | 4 kts | 50° |
| 2026-04-20 07:40 | -37.67780 | 144.84601 | 374 ft | 6 kts | 27° |
| 2026-04-20 07:40 | -37.67746 | 144.84650 | 376 ft | 8 kts | 69° |
| 2026-04-20 07:40 | -37.67739 | 144.84685 | 377 ft | 0 kts | 79° |
| 2026-04-20 07:41 | -37.67737 | 144.84698 | 377 ft | 4 kts | 79° |
| 2026-04-20 07:41 | -37.67728 | 144.84760 | 379 ft | 7 kts | 84° |
| 2026-04-20 07:41 | -37.67748 | 144.84788 | 379 ft | 8 kts | 211° |
| 2026-04-20 07:41 | -37.67768 | 144.84772 | 377 ft | 3 kts | 213° |
| 2026-04-20 07:42 | -37.67796 | 144.84755 | 376 ft | 4 kts | 201° |
| 2026-04-20 07:42 | -37.67822 | 144.84747 | 375 ft | 0 kts | 192° |